createdAt,value
2018-03-21T00:00:27.672Z,95.74
2018-03-21T00:01:27.720Z,95.55
2018-03-21T00:03:20.732Z,96.21
2018-03-21T00:04:20.759Z,96.12
2018-03-21T00:06:13.741Z,96.31
2018-03-21T00:07:13.797Z,96.40
2018-03-21T00:09:06.791Z,96.59
2018-03-21T00:10:06.829Z,96.97
2018-03-21T00:11:59.843Z,97.25
2018-03-21T00:12:59.873Z,97.06
2018-03-21T00:14:52.849Z,97.44
2018-03-21T00:15:52.900Z,98.48
2018-03-21T00:17:45.901Z,98.10
2018-03-21T00:18:45.929Z,98.10
2018-03-21T00:20:38.902Z,98.24
2018-03-21T00:21:38.961Z,98.62
2018-03-21T00:23:31.962Z,98.52
2018-03-21T00:24:31.993Z,99.09
2018-03-21T00:26:24.966Z,98.81
2018-03-21T00:27:25.018Z,99.28
2018-03-21T00:29:18.014Z,99.76
2018-03-21T00:30:18.050Z,99.76
2018-03-21T00:32:11.042Z,99.99
2018-03-21T00:33:11.084Z,99.99
2018-03-21T00:35:04.056Z,99.99
2018-03-21T00:36:04.109Z,99.99
2018-03-21T00:37:57.103Z,99.99
2018-03-21T00:38:57.129Z,99.99
2018-03-21T00:40:50.103Z,99.99
2018-03-21T00:41:50.156Z,99.99
2018-03-21T00:43:43.151Z,99.99
2018-03-21T00:44:43.183Z,99.99
2018-03-21T00:46:36.163Z,99.99
2018-03-21T00:47:36.216Z,99.99
2018-03-21T00:49:29.220Z,99.99
2018-03-21T00:50:29.250Z,99.99
2018-03-21T00:52:22.243Z,99.99
2018-03-21T00:53:22.303Z,99.99
2018-03-21T00:55:15.255Z,99.99
2018-03-21T00:56:15.301Z,99.99
2018-03-21T00:58:08.300Z,99.99
2018-03-21T00:59:08.334Z,99.99
2018-03-21T01:01:01.315Z,99.99
2018-03-21T01:02:01.367Z,99.99
2018-03-21T01:03:54.360Z,99.99
2018-03-21T01:04:54.393Z,99.99
2018-03-21T01:06:47.372Z,99.99
2018-03-21T01:07:47.422Z,99.99
2018-03-21T01:09:40.418Z,99.99
2018-03-21T01:10:40.454Z,99.99
2018-03-21T01:12:33.446Z,99.99
2018-03-21T01:13:33.480Z,99.99
2018-03-21T01:15:26.452Z,99.99
2018-03-21T01:16:26.508Z,99.99
2018-03-21T01:18:19.541Z,99.99
2018-03-21T01:19:19.538Z,99.99
2018-03-21T01:21:12.516Z,99.99
2018-03-21T01:22:12.564Z,99.99
2018-03-21T01:24:05.557Z,99.99
2018-03-21T01:25:05.594Z,99.99
2018-03-21T01:26:58.573Z,99.99
2018-03-21T01:27:58.619Z,99.99
2018-03-21T01:29:51.615Z,99.99
2018-03-21T01:30:51.653Z,99.99
2018-03-21T01:32:44.642Z,99.99
2018-03-21T01:33:44.675Z,99.99
2018-03-21T01:35:37.652Z,99.99
2018-03-21T01:36:37.701Z,99.99
2018-03-21T01:38:30.711Z,99.99
2018-03-21T01:39:30.748Z,99.99
2018-03-21T01:41:23.728Z,99.99
2018-03-21T01:42:23.781Z,99.99
2018-03-21T01:44:16.776Z,99.99
2018-03-21T01:45:16.818Z,99.99
2018-03-21T01:47:09.787Z,99.99
2018-03-21T01:48:09.833Z,99.99
2018-03-21T01:50:02.839Z,99.99
2018-03-21T01:51:02.862Z,99.99
2018-03-21T01:52:55.863Z,99.99
2018-03-21T01:53:55.903Z,99.99
2018-03-21T01:55:48.870Z,99.99
2018-03-21T01:56:48.924Z,99.99
2018-03-21T01:58:41.915Z,99.99
2018-03-21T01:59:41.953Z,99.99
2018-03-21T02:01:34.925Z,99.99
2018-03-21T02:02:34.979Z,99.99
2018-03-21T02:04:27.990Z,99.99
2018-03-21T02:05:28.011Z,99.99
2018-03-21T02:07:20.995Z,99.99
2018-03-21T02:08:21.054Z,99.99
2018-03-21T02:10:14.043Z,99.99
2018-03-21T02:11:14.080Z,99.99
2018-03-21T02:13:07.086Z,99.99
2018-03-21T02:14:07.108Z,99.99
2018-03-21T02:16:00.087Z,99.99
2018-03-21T02:17:00.137Z,99.99
2018-03-21T02:18:53.144Z,99.99
2018-03-21T02:19:53.176Z,99.99
2018-03-21T02:21:46.152Z,99.99
2018-03-21T02:22:46.204Z,99.99
2018-03-21T02:24:39.208Z,99.99
2018-03-21T02:25:39.236Z,99.99
2018-03-21T02:27:32.217Z,99.99
2018-03-21T02:28:32.263Z,99.99
2018-03-21T02:30:25.258Z,99.99
2018-03-21T02:31:25.285Z,99.99
2018-03-21T02:33:18.309Z,99.99
2018-03-21T02:34:18.324Z,99.99
2018-03-21T02:36:11.296Z,99.99
2018-03-21T02:37:11.348Z,99.99
2018-03-21T02:39:04.343Z,99.99
2018-03-21T02:40:04.395Z,99.99
2018-03-21T02:41:57.368Z,99.99
2018-03-21T02:42:57.405Z,99.99
2018-03-21T02:44:50.411Z,99.99
2018-03-21T02:45:50.431Z,99.99
2018-03-21T02:47:43.400Z,99.99
2018-03-21T02:48:43.455Z,99.99
2018-03-21T02:50:36.449Z,99.99
2018-03-21T02:51:36.486Z,99.99
2018-03-21T02:53:29.491Z,99.99
2018-03-21T02:54:29.519Z,99.99
2018-03-21T02:56:22.492Z,99.99
2018-03-21T02:57:22.543Z,99.99
2018-03-21T02:59:15.536Z,99.99
2018-03-21T03:00:15.572Z,99.99
2018-03-21T03:02:08.540Z,99.99
2018-03-21T03:03:08.592Z,99.99
2018-03-21T03:05:01.595Z,99.99
2018-03-21T03:06:01.635Z,99.99
2018-03-21T03:07:54.592Z,99.99
2018-03-21T03:08:54.645Z,99.99
2018-03-21T03:10:47.637Z,99.99
2018-03-21T03:11:47.672Z,99.99
2018-03-21T03:13:40.728Z,99.99
2018-03-21T03:14:40.704Z,99.99
2018-03-21T03:16:33.684Z,99.99
2018-03-21T03:17:33.732Z,99.99
2018-03-21T03:19:26.742Z,99.99
2018-03-21T03:20:26.775Z,99.99
2018-03-21T03:22:19.748Z,99.99
2018-03-21T03:23:19.975Z,99.99
2018-03-21T03:25:12.800Z,99.99
2018-03-21T03:26:12.833Z,99.99
2018-03-21T03:28:05.811Z,99.99
2018-03-21T03:29:05.863Z,99.99
2018-03-21T03:30:59.374Z,99.99
2018-03-21T03:31:59.393Z,99.99
2018-03-21T03:33:52.403Z,99.99
2018-03-21T03:34:52.417Z,99.99
2018-03-21T03:36:45.397Z,99.99
2018-03-21T03:37:45.442Z,99.99
2018-03-21T03:39:38.448Z,99.99
2018-03-21T03:40:38.468Z,99.99
2018-03-21T03:42:31.443Z,99.99
2018-03-21T03:43:31.498Z,99.99
2018-03-21T03:45:24.496Z,99.99
2018-03-21T03:46:24.527Z,99.99
2018-03-21T03:48:17.500Z,99.99
2018-03-21T03:49:17.552Z,99.99
2018-03-21T03:51:10.545Z,99.99
2018-03-21T03:52:10.575Z,99.99
2018-03-21T03:54:03.576Z,99.99
2018-03-21T03:55:03.610Z,99.99
2018-03-21T03:56:56.597Z,99.99
2018-03-21T03:57:56.635Z,99.99
2018-03-21T03:59:49.625Z,99.99
2018-03-21T04:00:49.673Z,99.99
2018-03-21T04:02:42.685Z,99.99
2018-03-21T04:03:42.796Z,99.99
2018-03-21T04:05:35.737Z,99.99
2018-03-21T04:06:35.763Z,99.99
2018-03-21T04:08:28.741Z,99.99
2018-03-21T04:09:28.796Z,99.99
2018-03-21T04:11:21.799Z,99.99
2018-03-21T04:12:21.831Z,99.99
2018-03-21T04:14:14.829Z,99.99
2018-03-21T04:15:14.865Z,99.99
2018-03-21T04:17:07.841Z,99.99
2018-03-21T04:18:07.890Z,99.99
2018-03-21T04:20:00.906Z,99.99
2018-03-21T04:21:00.927Z,99.99
2018-03-21T04:22:53.895Z,99.99
2018-03-21T04:23:53.948Z,99.99
2018-03-21T04:25:46.945Z,99.99
2018-03-21T04:26:46.974Z,99.99
2018-03-21T04:28:39.944Z,99.99
2018-03-21T04:29:40.003Z,99.99
2018-03-21T04:31:32.994Z,99.99
2018-03-21T04:32:33.032Z,99.99
2018-03-21T04:34:26.021Z,99.99
2018-03-21T04:35:26.090Z,99.99
2018-03-21T04:37:19.036Z,99.99
2018-03-21T04:38:19.084Z,99.99
2018-03-21T04:40:12.077Z,99.99
2018-03-21T04:41:12.110Z,99.99
2018-03-21T04:43:05.090Z,99.99
2018-03-21T04:44:05.141Z,99.99
2018-03-21T04:45:58.141Z,99.99
2018-03-21T04:46:58.173Z,99.99
2018-03-21T04:48:51.145Z,99.99
2018-03-21T04:49:51.198Z,99.99
2018-03-21T04:51:44.216Z,99.99
2018-03-21T04:52:44.267Z,99.99
2018-03-21T04:54:37.257Z,99.99
2018-03-21T04:55:37.287Z,99.99
2018-03-21T04:57:30.271Z,99.99
2018-03-21T04:58:30.310Z,99.99
2018-03-21T05:00:23.302Z,99.99
2018-03-21T05:01:23.335Z,99.99
2018-03-21T05:03:16.310Z,99.99
2018-03-21T05:04:16.360Z,99.99
2018-03-21T05:06:09.360Z,99.99
2018-03-21T05:07:09.387Z,99.99
2018-03-21T05:09:02.360Z,99.99
2018-03-21T05:10:02.412Z,99.99
2018-03-21T05:11:55.411Z,99.99
2018-03-21T05:12:55.458Z,99.99
2018-03-21T05:14:48.438Z,99.99
2018-03-21T05:15:48.472Z,99.99
2018-03-21T05:17:41.457Z,99.99
2018-03-21T05:18:41.496Z,99.99
2018-03-21T05:20:34.548Z,99.99
2018-03-21T05:21:34.575Z,99.99
2018-03-21T05:23:27.559Z,99.99
2018-03-21T05:24:27.612Z,99.99
2018-03-21T05:26:20.620Z,99.99
2018-03-21T05:27:20.645Z,99.99
2018-03-21T05:29:13.626Z,99.99
2018-03-21T05:30:13.681Z,99.99
2018-03-21T05:32:06.675Z,99.99
2018-03-21T05:33:06.708Z,99.99
2018-03-21T05:34:59.705Z,99.99
2018-03-21T05:35:59.734Z,99.99
2018-03-21T05:37:52.707Z,99.99
2018-03-21T05:38:52.754Z,99.99
2018-03-21T05:40:45.750Z,99.99
2018-03-21T05:41:45.778Z,99.99
2018-03-21T05:43:38.751Z,99.99
2018-03-21T05:44:38.806Z,99.99
2018-03-21T05:46:31.797Z,99.99
2018-03-21T05:47:31.828Z,99.99
2018-03-21T05:49:24.814Z,99.99
2018-03-21T05:50:24.849Z,99.99
2018-03-21T05:52:17.847Z,99.99
2018-03-21T05:53:17.881Z,99.99
2018-03-21T05:55:10.870Z,99.99
2018-03-21T05:56:10.916Z,99.99
2018-03-21T05:58:03.874Z,99.99
2018-03-21T05:59:03.925Z,99.99
2018-03-21T06:00:56.921Z,99.99
2018-03-21T06:01:56.953Z,99.99
2018-03-21T06:03:49.929Z,99.99
2018-03-21T06:04:49.986Z,99.99
2018-03-21T06:06:42.993Z,99.99
2018-03-21T06:07:43.009Z,99.99
2018-03-21T06:09:36.000Z,99.99
2018-03-21T06:10:36.035Z,99.99
2018-03-21T06:12:29.034Z,99.99
2018-03-21T06:13:29.069Z,99.99
2018-03-21T06:15:22.059Z,99.99
2018-03-21T06:16:22.087Z,99.99
2018-03-21T06:18:15.061Z,99.99
2018-03-21T06:19:15.110Z,99.99
2018-03-21T06:21:08.114Z,99.99
2018-03-21T06:22:08.138Z,99.99
2018-03-21T06:24:01.111Z,99.99
2018-03-21T06:25:01.160Z,99.99
2018-03-21T06:26:54.151Z,99.99
2018-03-21T06:27:54.184Z,99.99
2018-03-21T06:29:47.159Z,99.99
2018-03-21T06:30:47.213Z,99.99
2018-03-21T06:32:40.222Z,99.99
2018-03-21T06:33:40.250Z,99.99
2018-03-21T06:35:33.748Z,99.99
2018-03-21T06:36:33.775Z,99.99
2018-03-21T06:38:26.745Z,99.99
2018-03-21T06:39:26.797Z,99.99
2018-03-21T06:41:19.810Z,99.99
2018-03-21T06:42:19.832Z,99.99
2018-03-21T06:44:12.815Z,99.99
2018-03-21T06:45:12.866Z,99.99
2018-03-21T06:47:05.860Z,99.99
2018-03-21T06:48:05.891Z,99.99
2018-03-21T06:49:58.873Z,99.99
2018-03-21T06:50:58.927Z,99.99
2018-03-21T06:52:51.909Z,99.99
2018-03-21T06:53:51.945Z,99.99
2018-03-21T06:55:44.930Z,99.99
2018-03-21T06:56:44.963Z,99.99
2018-03-21T06:58:37.947Z,99.99
2018-03-21T06:59:38.010Z,99.99
2018-03-21T07:01:30.992Z,99.99
2018-03-21T07:02:31.087Z,99.99
2018-03-21T07:04:24.007Z,99.99
2018-03-21T07:05:24.057Z,99.99
2018-03-21T07:07:17.055Z,99.99
2018-03-21T07:08:17.084Z,99.99
2018-03-21T07:10:10.059Z,99.99
2018-03-21T07:11:10.113Z,99.99
2018-03-21T07:13:03.106Z,99.99
2018-03-21T07:14:03.141Z,99.99
2018-03-21T07:15:56.138Z,99.99
2018-03-21T07:16:56.172Z,99.99
2018-03-21T07:18:49.147Z,99.99
2018-03-21T07:19:49.201Z,99.99
2018-03-21T07:21:42.198Z,99.99
2018-03-21T07:22:42.233Z,99.99
2018-03-21T07:24:35.287Z,99.99
2018-03-21T07:25:35.345Z,99.99
2018-03-21T07:27:28.342Z,99.99
2018-03-21T07:28:28.378Z,99.99
2018-03-21T07:30:21.350Z,99.62
2018-03-21T07:31:21.410Z,99.62
2018-03-21T07:33:14.411Z,99.52
2018-03-21T07:34:14.438Z,99.71
2018-03-21T07:36:07.960Z,99.43
2018-03-21T07:37:07.973Z,99.80
2018-03-21T07:39:00.960Z,99.52
2018-03-21T07:40:01.016Z,99.52
2018-03-21T07:41:54.009Z,99.43
2018-03-21T07:42:54.043Z,99.52
2018-03-21T07:44:47.018Z,99.24
2018-03-21T07:45:47.069Z,98.96
2018-03-21T07:47:40.098Z,98.86
2018-03-21T07:48:40.097Z,99.24
2018-03-21T07:50:33.072Z,98.48
2018-03-21T07:51:33.121Z,98.29
2018-03-21T07:53:26.112Z,98.48
2018-03-21T07:54:26.146Z,98.29
2018-03-21T07:56:19.155Z,98.29
2018-03-21T07:57:19.175Z,98.29
2018-03-21T07:59:12.150Z,98.20
2018-03-21T08:00:12.204Z,98.39
2018-03-21T08:02:05.209Z,98.77
2018-03-21T08:03:05.240Z,98.48
2018-03-21T08:04:58.215Z,99.76
2018-03-21T08:05:58.269Z,99.90
2018-03-21T08:07:51.269Z,99.80
2018-03-21T08:08:51.315Z,99.80
2018-03-21T08:10:44.283Z,99.99
2018-03-21T08:11:44.338Z,99.99
2018-03-21T08:13:37.332Z,99.99
2018-03-21T08:14:37.375Z,99.99
2018-03-21T08:16:30.362Z,99.95
2018-03-21T08:17:30.396Z,99.99
2018-03-21T08:19:23.377Z,99.99
2018-03-21T08:20:23.427Z,99.99
2018-03-21T08:22:16.430Z,99.99
2018-03-21T08:23:16.464Z,99.99
2018-03-21T08:25:09.488Z,99.99
2018-03-21T08:26:09.501Z,99.99
2018-03-21T08:28:02.549Z,99.76
2018-03-21T08:29:02.541Z,99.99
2018-03-21T08:30:55.503Z,99.99
2018-03-21T08:31:55.554Z,99.99
2018-03-21T08:33:48.546Z,99.99
2018-03-21T08:34:48.594Z,99.99
2018-03-21T08:36:41.577Z,99.99
2018-03-21T08:37:41.611Z,99.99
2018-03-21T08:39:34.593Z,99.99
2018-03-21T08:40:34.645Z,99.99
2018-03-21T08:42:27.643Z,99.99
2018-03-21T08:43:27.694Z,99.99
2018-03-21T08:45:20.656Z,99.99
2018-03-21T08:46:20.706Z,99.99
2018-03-21T08:48:13.743Z,99.99
2018-03-21T08:49:13.738Z,99.99
2018-03-21T08:51:06.719Z,99.99
2018-03-21T08:52:06.772Z,99.99
2018-03-21T08:53:59.778Z,99.99
2018-03-21T08:54:59.813Z,99.99
2018-03-21T08:56:52.815Z,99.99
2018-03-21T08:57:52.848Z,99.99
2018-03-21T08:59:45.826Z,99.99
2018-03-21T09:00:45.931Z,99.99
2018-03-21T09:02:38.883Z,99.99
2018-03-21T09:03:38.933Z,99.99
2018-03-21T09:05:31.902Z,99.99
2018-03-21T09:06:31.954Z,99.99
2018-03-21T09:08:24.968Z,99.99
2018-03-21T09:09:24.996Z,99.99
2018-03-21T09:11:17.964Z,99.99
2018-03-21T09:12:18.031Z,99.99
2018-03-21T09:14:11.018Z,99.99
2018-03-21T09:15:11.055Z,99.99
2018-03-21T09:17:04.054Z,99.99
2018-03-21T09:18:04.088Z,99.99
2018-03-21T09:19:57.066Z,99.99
2018-03-21T09:20:57.128Z,99.99
2018-03-21T09:22:50.121Z,99.99
2018-03-21T09:23:50.152Z,99.99
2018-03-21T09:25:43.137Z,99.99
2018-03-21T09:26:43.189Z,99.99
2018-03-21T09:28:36.193Z,99.99
2018-03-21T09:29:36.230Z,99.99
2018-03-21T09:31:29.223Z,99.99
2018-03-21T09:32:29.275Z,99.99
2018-03-21T09:34:22.272Z,99.99
2018-03-21T09:35:22.310Z,99.99
2018-03-21T09:37:15.311Z,99.99
2018-03-21T09:38:15.353Z,99.99
2018-03-21T09:40:08.327Z,99.99
2018-03-21T09:41:08.393Z,99.99
2018-03-21T09:43:01.382Z,99.99
2018-03-21T09:44:01.420Z,99.99
2018-03-21T09:45:54.403Z,99.99
2018-03-21T09:46:54.458Z,99.99
2018-03-21T09:48:47.464Z,99.99
2018-03-21T09:49:47.528Z,99.99
2018-03-21T09:51:40.488Z,99.99
2018-03-21T09:52:40.548Z,99.99
2018-03-21T09:54:33.574Z,99.99
2018-03-21T09:55:33.584Z,99.99
2018-03-21T09:57:26.615Z,99.99
2018-03-21T09:58:26.660Z,99.99
2018-03-21T10:00:19.634Z,99.99
2018-03-21T10:01:19.689Z,99.99
2018-03-21T10:03:12.683Z,99.99
2018-03-21T10:04:12.721Z,99.99
2018-03-21T10:06:05.700Z,99.99
2018-03-21T10:07:05.760Z,99.99
2018-03-21T10:08:58.761Z,99.99
2018-03-21T10:09:58.802Z,99.99
2018-03-21T10:11:51.783Z,99.99
2018-03-21T10:12:51.833Z,99.99
2018-03-21T10:14:44.843Z,99.99
2018-03-21T10:15:44.918Z,99.99
2018-03-21T10:17:37.881Z,99.99
2018-03-21T10:18:37.917Z,99.99
2018-03-21T10:20:30.900Z,99.99
2018-03-21T10:21:30.956Z,99.99
2018-03-21T10:23:23.972Z,99.99
2018-03-21T10:24:23.995Z,99.99
2018-03-21T10:26:16.970Z,99.99
2018-03-21T10:27:17.026Z,99.99
2018-03-21T10:29:10.035Z,99.99
2018-03-21T10:30:10.073Z,99.99
2018-03-21T10:32:03.053Z,99.99
2018-03-21T10:33:03.121Z,99.99
2018-03-21T10:34:56.113Z,99.99
2018-03-21T10:35:56.148Z,99.99
2018-03-21T10:37:49.151Z,99.99
2018-03-21T10:38:49.187Z,99.99
2018-03-21T10:40:42.166Z,99.99
2018-03-21T10:41:42.223Z,99.99
2018-03-21T10:43:35.227Z,99.99
2018-03-21T10:44:35.258Z,99.99
2018-03-21T10:46:28.266Z,99.99
2018-03-21T10:47:28.326Z,99.99
2018-03-21T10:49:21.328Z,99.99
2018-03-21T10:50:21.366Z,99.99
2018-03-21T10:52:14.346Z,99.99
2018-03-21T10:53:14.402Z,99.99
2018-03-21T10:55:07.403Z,99.99
2018-03-21T10:56:07.438Z,99.99
2018-03-21T10:58:00.436Z,99.99
2018-03-21T10:59:00.473Z,99.99
2018-03-21T11:00:53.454Z,99.99
2018-03-21T11:01:53.509Z,99.73
2018-03-21T11:03:46.514Z,99.99
2018-03-21T11:04:46.549Z,99.99
2018-03-21T11:06:39.532Z,99.99
2018-03-21T11:07:39.598Z,99.99
2018-03-21T11:09:32.588Z,99.99
2018-03-21T11:10:32.626Z,99.99
2018-03-21T11:12:25.609Z,99.99
2018-03-21T11:13:25.660Z,99.99
2018-03-21T11:15:18.667Z,99.99
2018-03-21T11:16:18.712Z,99.99
2018-03-21T11:18:11.708Z,99.99
2018-03-21T11:19:11.762Z,99.91
2018-03-21T11:21:04.728Z,99.99
2018-03-21T11:22:04.780Z,99.87
2018-03-21T11:23:57.780Z,99.83
2018-03-21T11:24:57.818Z,97.83
2018-03-21T11:26:50.797Z,94.74
2018-03-21T11:27:50.865Z,95.12
2018-03-21T11:29:43.854Z,97.41
2018-03-21T11:30:43.893Z,96.74
2018-03-21T11:32:36.870Z,96.55
2018-03-21T11:33:36.928Z,96.78
2018-03-21T11:35:30.445Z,97.74
2018-03-21T11:36:30.477Z,97.74
2018-03-21T11:38:23.473Z,98.68
2018-03-21T11:39:23.510Z,98.87
2018-03-21T11:41:16.494Z,99.63
2018-03-21T11:42:16.548Z,99.06
2018-03-21T11:44:09.551Z,98.21
2018-03-21T11:45:09.588Z,98.45
2018-03-21T11:47:02.569Z,97.97
2018-03-21T11:48:02.627Z,97.22
2018-03-21T11:49:55.636Z,97.02
2018-03-21T11:50:55.667Z,96.74
2018-03-21T11:52:48.648Z,95.03
2018-03-21T11:53:48.706Z,94.84
2018-03-21T11:55:41.707Z,95.89
2018-03-21T11:56:41.745Z,95.84
2018-03-21T11:58:34.770Z,96.55
2018-03-21T11:59:34.804Z,96.36
2018-03-21T12:01:27.787Z,96.36
2018-03-21T12:02:27.848Z,95.89
2018-03-21T12:04:20.859Z,96.64
2018-03-21T12:05:20.897Z,96.17
2018-03-21T12:07:13.880Z,95.51
2018-03-21T12:08:13.943Z,95.31
2018-03-21T12:10:06.953Z,95.51
2018-03-21T12:11:06.991Z,95.41
2018-03-21T12:12:59.969Z,95.60
2018-03-21T12:14:00.026Z,94.13
2018-03-21T12:15:53.029Z,94.70
2018-03-21T12:16:53.064Z,95.36
2018-03-21T12:18:46.065Z,95.84
2018-03-21T12:19:46.099Z,95.74
2018-03-21T12:21:39.083Z,96.59
2018-03-21T12:22:39.155Z,96.78
2018-03-21T12:24:32.139Z,96.59
2018-03-21T12:25:32.177Z,96.69
2018-03-21T12:27:25.186Z,95.60
2018-03-21T12:28:25.244Z,95.89
2018-03-21T12:30:18.257Z,94.37
2018-03-21T12:31:18.292Z,94.56
2018-03-21T12:33:11.274Z,93.89
2018-03-21T12:34:11.333Z,93.60
2018-03-21T12:36:05.845Z,93.23
2018-03-21T12:37:05.879Z,93.37
2018-03-21T12:38:58.888Z,94.70
2018-03-21T12:39:58.925Z,94.79
2018-03-21T12:41:51.900Z,94.23
2018-03-21T12:42:51.958Z,93.94
2018-03-21T12:44:45.019Z,93.08
2018-03-21T12:45:45.006Z,92.52
2018-03-21T12:47:37.992Z,92.47
2018-03-21T12:48:38.043Z,91.14
2018-03-21T12:50:31.045Z,92.75
2018-03-21T12:51:31.081Z,92.47
2018-03-21T12:53:24.070Z,92.75
2018-03-21T12:54:24.117Z,92.09
2018-03-21T12:56:17.224Z,91.99
2018-03-21T12:57:17.160Z,92.94
2018-03-21T12:59:10.178Z,92.80
2018-03-21T13:00:10.211Z,92.80
2018-03-21T13:02:03.196Z,92.42
2018-03-21T13:03:03.256Z,92.99
2018-03-21T13:04:56.265Z,92.42
2018-03-21T13:05:56.289Z,92.66
2018-03-21T13:07:49.272Z,92.18
2018-03-21T13:08:49.331Z,91.71
2018-03-21T13:10:42.325Z,92.18
2018-03-21T13:11:42.361Z,92.23
2018-03-21T13:13:35.349Z,93.13
2018-03-21T13:14:35.404Z,91.19
2018-03-21T13:16:28.409Z,90.05
2018-03-21T13:17:28.451Z,89.47
2018-03-21T13:19:21.456Z,90.99
2018-03-21T13:20:21.493Z,90.57
2018-03-21T13:22:14.479Z,91.14
2018-03-21T13:23:14.536Z,91.04
2018-03-21T13:25:07.533Z,91.19
2018-03-21T13:26:07.608Z,90.09
2018-03-21T13:28:00.560Z,89.86
2018-03-21T13:29:00.609Z,89.76
2018-03-21T13:30:53.614Z,89.05
2018-03-21T13:31:53.652Z,89.53
2018-03-21T13:33:46.637Z,90.47
2018-03-21T13:34:46.695Z,89.14
2018-03-21T13:36:39.697Z,90.09
2018-03-21T13:37:40.730Z,88.95
2018-03-21T13:39:32.735Z,88.81
2018-03-21T13:40:32.791Z,88.15
2018-03-21T13:42:25.755Z,88.34
2018-03-21T13:43:25.815Z,88.62
2018-03-21T13:45:18.827Z,88.86
2018-03-21T13:46:18.858Z,89.53
2018-03-21T13:48:11.832Z,89.81
2018-03-21T13:49:11.892Z,89.24
2018-03-21T13:51:04.903Z,89.62
2018-03-21T13:52:04.932Z,90.09
2018-03-21T13:53:57.913Z,90.38
2018-03-21T13:54:57.974Z,89.53
2018-03-21T13:56:50.975Z,89.14
2018-03-21T13:57:51.068Z,89.05
2018-03-21T13:59:44.014Z,88.95
2018-03-21T14:00:44.050Z,88.43
2018-03-21T14:02:37.045Z,88.15
2018-03-21T14:03:37.090Z,88.15
2018-03-21T14:05:30.097Z,87.67
2018-03-21T14:06:30.136Z,87.76
2018-03-21T14:08:23.121Z,88.34
2018-03-21T14:09:23.180Z,88.43
2018-03-21T14:11:16.178Z,87.95
2018-03-21T14:12:16.218Z,87.57
2018-03-21T14:14:09.211Z,87.86
2018-03-21T14:15:09.253Z,87.57
2018-03-21T14:17:02.260Z,88.62
2018-03-21T14:18:02.326Z,88.39
2018-03-21T14:19:55.297Z,88.86
2018-03-21T14:20:55.334Z,89.53
2018-03-21T14:22:48.319Z,89.90
2018-03-21T14:23:48.380Z,89.09
2018-03-21T14:25:41.380Z,89.47
2018-03-21T14:26:41.417Z,89.00
2018-03-21T14:28:34.416Z,89.00
2018-03-21T14:29:34.472Z,88.53
2018-03-21T14:31:27.480Z,87.38
2018-03-21T14:32:27.525Z,87.71
2018-03-21T14:34:20.503Z,88.00
2018-03-21T14:35:20.555Z,86.95
2018-03-21T14:37:13.565Z,86.67
2018-03-21T14:38:13.601Z,86.00
2018-03-21T14:40:06.601Z,86.00
2018-03-21T14:41:06.644Z,85.62
2018-03-21T14:42:59.624Z,85.05
2018-03-21T14:43:59.685Z,84.67
2018-03-21T14:45:52.683Z,86.00
2018-03-21T14:46:52.723Z,86.19
2018-03-21T14:48:45.699Z,86.34
2018-03-21T14:49:45.757Z,86.63
2018-03-21T14:51:38.762Z,87.01
2018-03-21T14:52:38.795Z,87.29
2018-03-21T14:54:31.784Z,87.01
2018-03-21T14:55:31.844Z,87.29
2018-03-21T14:57:24.842Z,86.91
2018-03-21T14:58:24.886Z,87.48
2018-03-21T15:00:17.890Z,86.63
2018-03-21T15:01:17.926Z,86.82
2018-03-21T15:03:10.904Z,86.91
2018-03-21T15:04:10.959Z,87.29
2018-03-21T15:06:03.958Z,86.63
2018-03-21T15:07:03.995Z,86.72
2018-03-21T15:08:56.976Z,86.63
2018-03-21T15:09:57.033Z,86.72
2018-03-21T15:11:50.032Z,86.53
2018-03-21T15:12:50.078Z,86.82
2018-03-21T15:14:43.050Z,86.63
2018-03-21T15:15:43.111Z,86.43
2018-03-21T15:17:36.121Z,87.01
2018-03-21T15:18:36.151Z,86.63
2018-03-21T15:20:29.168Z,87.10
2018-03-21T15:21:29.200Z,86.63
2018-03-21T15:23:22.215Z,86.24
2018-03-21T15:24:22.241Z,86.24
2018-03-21T15:26:15.270Z,86.05
2018-03-21T15:27:15.279Z,86.43
2018-03-21T15:29:08.265Z,85.77
2018-03-21T15:30:08.316Z,85.58
2018-03-21T15:32:01.323Z,86.34
2018-03-21T15:33:01.351Z,85.72
2018-03-21T15:34:54.341Z,86.00
2018-03-21T15:35:54.415Z,86.00
2018-03-21T15:37:47.416Z,85.34
2018-03-21T15:38:47.466Z,85.15
2018-03-21T15:40:40.455Z,84.82
2018-03-21T15:41:40.496Z,84.82
2018-03-21T15:43:33.477Z,85.20
2018-03-21T15:44:33.640Z,85.20
2018-03-21T15:46:26.533Z,85.20
2018-03-21T15:47:26.598Z,84.91
2018-03-21T15:49:19.555Z,85.30
2018-03-21T15:50:19.608Z,85.11
2018-03-21T15:52:12.607Z,85.86
2018-03-21T15:53:12.649Z,85.86
2018-03-21T15:55:05.639Z,86.24
2018-03-21T15:56:05.686Z,86.43
2018-03-21T15:57:58.695Z,87.01
2018-03-21T15:58:58.721Z,86.63
2018-03-21T16:00:51.745Z,87.10
2018-03-21T16:01:51.757Z,86.82
2018-03-21T16:03:44.737Z,86.72
2018-03-21T16:04:44.790Z,86.82
2018-03-21T16:06:37.794Z,86.43
2018-03-21T16:07:37.827Z,86.53
2018-03-21T16:09:30.813Z,86.24
2018-03-21T16:10:30.862Z,86.24
2018-03-21T16:12:24.092Z,86.34
2018-03-21T16:13:23.960Z,86.34
2018-03-21T16:15:17.489Z,86.15
2018-03-21T16:16:17.028Z,85.68
2018-03-21T16:18:10.018Z,85.77
2018-03-21T16:19:10.113Z,85.77
2018-03-21T16:21:03.055Z,86.24
2018-03-21T16:22:03.094Z,86.43
2018-03-21T16:23:56.070Z,86.15
2018-03-21T16:24:56.143Z,85.68
2018-03-21T16:26:50.675Z,85.86
2018-03-21T16:27:50.105Z,85.68
2018-03-21T16:29:42.304Z,85.58
2018-03-21T16:30:42.835Z,85.77
2018-03-21T16:32:35.234Z,85.68
2018-03-21T16:33:35.295Z,85.77
2018-03-21T16:35:28.391Z,85.49
2018-03-21T16:36:28.612Z,85.58
2018-03-21T16:38:21.635Z,85.77
2018-03-21T16:39:21.348Z,85.58
2018-03-21T16:41:14.650Z,86.01
2018-03-21T16:42:14.394Z,85.63
2018-03-21T16:44:07.388Z,85.77
2018-03-21T16:45:07.429Z,85.72
2018-03-21T16:47:00.438Z,85.44
2018-03-21T16:48:00.475Z,86.20
2018-03-21T16:49:53.478Z,86.49
2018-03-21T16:50:53.540Z,86.11
2018-03-21T16:52:46.601Z,86.87
2018-03-21T16:53:46.573Z,86.58
2018-03-21T16:55:39.562Z,85.25
2018-03-21T16:56:39.619Z,85.91
2018-03-21T16:58:34.149Z,85.25
2018-03-21T16:59:34.174Z,85.16
2018-03-21T17:01:27.172Z,85.16
2018-03-21T17:02:27.209Z,85.63
2018-03-21T17:04:20.194Z,85.44
2018-03-21T17:05:20.253Z,85.53
2018-03-21T17:07:13.247Z,85.63
2018-03-21T17:08:13.287Z,85.53
2018-03-21T17:10:06.340Z,85.53
2018-03-21T17:11:06.325Z,85.35
2018-03-21T17:12:59.352Z,85.72
2018-03-21T17:13:59.359Z,85.53
2018-03-21T17:15:52.343Z,85.06
2018-03-21T17:16:52.396Z,85.25
2018-03-21T17:18:45.405Z,85.63
2018-03-21T17:19:45.438Z,85.63
2018-03-21T17:21:38.430Z,85.72
2018-03-21T17:22:38.466Z,85.35
2018-03-21T17:24:31.452Z,85.35
2018-03-21T17:25:31.666Z,85.72
2018-03-21T17:27:24.514Z,85.44
2018-03-21T17:28:24.560Z,86.30
2018-03-21T17:30:17.540Z,86.20
2018-03-21T17:31:17.592Z,86.30
2018-03-21T17:33:10.593Z,86.49
2018-03-21T17:34:10.628Z,86.30
2018-03-21T17:36:03.633Z,86.58
2018-03-21T17:37:03.674Z,86.77
2018-03-21T17:38:56.682Z,87.05
2018-03-21T17:39:56.717Z,86.58
2018-03-21T17:41:49.714Z,86.49
2018-03-21T17:42:49.750Z,87.05
2018-03-21T17:44:42.734Z,87.87
2018-03-21T17:45:42.787Z,87.87
2018-03-21T17:47:35.792Z,87.58
2018-03-21T17:48:35.829Z,88.34
2018-03-21T17:50:28.813Z,88.81
2018-03-21T17:51:28.869Z,88.72
2018-03-21T17:53:21.868Z,89.39
2018-03-21T17:54:21.904Z,89.20
2018-03-21T17:56:14.894Z,90.14
2018-03-21T17:57:14.955Z,89.76
2018-03-21T17:59:08.460Z,90.05
2018-03-21T18:00:08.491Z,90.14
2018-03-21T18:02:01.556Z,90.43
2018-03-21T18:03:01.537Z,90.52
2018-03-21T18:04:54.517Z,90.81
2018-03-21T18:05:54.565Z,90.71
2018-03-21T18:07:47.565Z,91.47
2018-03-21T18:08:47.601Z,91.47
2018-03-21T18:10:40.574Z,91.47
2018-03-21T18:11:40.631Z,91.19
2018-03-21T18:13:33.633Z,90.71
2018-03-21T18:14:33.669Z,90.90
2018-03-21T18:16:26.663Z,91.09
2018-03-21T18:17:26.720Z,91.47
2018-03-21T18:19:19.716Z,91.19
2018-03-21T18:20:19.753Z,91.47
2018-03-21T18:22:12.754Z,91.28
2018-03-21T18:23:12.789Z,91.47
2018-03-21T18:25:05.793Z,91.38
2018-03-21T18:26:05.822Z,91.38
2018-03-21T18:27:58.824Z,91.66
2018-03-21T18:28:58.856Z,91.09
2018-03-21T18:30:51.841Z,91.28
2018-03-21T18:31:51.899Z,91.38
2018-03-21T18:33:44.896Z,91.09